首页
METAR-TAF:

METAR-TAF

机场 :

巴罗达, 印度

纬度: 22-19-46N, 经度: 73-13-10E, 海拔: 39米

当前天气观测

该预报发布于1小时和58分钟前的16:30 UTC
风速12节,风向南转西南,有时为22节阵风
温度 31°C
湿度 71%
气压 1002 hPa
能見度: 4000
少量云层高于8000英尺
霾,

METAR: VABO 181630Z 20012G22KT 4000 HZ FEW080 31/25 Q1002 NOSIG

时间: 23:58 (18:28 UTC)

预报

该预报发布于1小时和28分钟前的17:00 UTC
预报有效从18日的 18点(UTC)到 19日的 03点(UTC)
风速12节,风向南转西南
能見度: 4000
少量云层高于8000英尺
霾, 烟
成为
从 19日的 01点(UTC)到 19日的 03点(UTC)
风速8节,风向西南
散云层高于2000英尺
散云层高于8000英尺
霾,

TAF: VABO 181700Z 1818/1903 20012KT 4000 HZ FU FEW080 BECMG 1901/1903 23008KT HZ SCT020 SCT080

超过4000个机场的气象观测和天气预报(METAR&TAF报告)。

可查询的气象台以黄色和红色小点在地图上表示。

将鼠标移到小点上方,可查看气象台名称。

然后点击查看天气观测和预报。

如需切换地图:点击带黑十字的绿色按钮放大地图;点击带横线的绿色按钮缩小地图;或者点击绿色箭头查看邻近地区的地图。


METAR-TAF: